sensor_id;sensor_type;location;lat;lon;timestamp;P1;durP1;ratioP1;P2;durP2;ratioP2
13335;SDS011;6737;51.480;11.962;2023-08-21T00:01:45;7.90;;;6.95;;
13335;SDS011;6737;51.480;11.962;2023-08-21T00:04:10;9.90;;;6.47;;
13335;SDS011;6737;51.480;11.962;2023-08-21T00:06:36;9.77;;;6.88;;
13335;SDS011;6737;51.480;11.962;2023-08-21T00:09:02;8.80;;;6.97;;
13335;SDS011;6737;51.480;11.962;2023-08-21T00:11:28;12.82;;;7.40;;
13335;SDS011;6737;51.480;11.962;2023-08-21T00:13:54;8.75;;;7.00;;
13335;SDS011;6737;51.480;11.962;2023-08-21T00:16:20;9.20;;;7.38;;
13335;SDS011;6737;51.480;11.962;2023-08-21T00:18:46;9.52;;;6.50;;
13335;SDS011;6737;51.480;11.962;2023-08-21T00:21:12;8.25;;;5.95;;
13335;SDS011;6737;51.480;11.962;2023-08-21T00:23:38;7.07;;;5.78;;
13335;SDS011;6737;51.480;11.962;2023-08-21T00:26:03;8.98;;;6.18;;
13335;SDS011;6737;51.480;11.962;2023-08-21T00:28:29;9.27;;;5.93;;
13335;SDS011;6737;51.480;11.962;2023-08-21T00:31:01;8.48;;;5.95;;
13335;SDS011;6737;51.480;11.962;2023-08-21T00:33:29;9.10;;;5.60;;
13335;SDS011;6737;51.480;11.962;2023-08-21T00:35:58;10.32;;;6.20;;
13335;SDS011;6737;51.480;11.962;2023-08-21T00:38:24;9.98;;;5.90;;
13335;SDS011;6737;51.480;11.962;2023-08-21T00:40:51;10.07;;;6.10;;
13335;SDS011;6737;51.480;11.962;2023-08-21T00:43:17;9.43;;;5.75;;
13335;SDS011;6737;51.480;11.962;2023-08-21T00:45:44;8.55;;;5.82;;
13335;SDS011;6737;51.480;11.962;2023-08-21T00:48:11;6.95;;;5.60;;
13335;SDS011;6737;51.480;11.962;2023-08-21T00:50:39;6.85;;;5.30;;
13335;SDS011;6737;51.480;11.962;2023-08-21T00:53:05;8.57;;;5.75;;
13335;SDS011;6737;51.480;11.962;2023-08-21T00:55:32;6.97;;;5.40;;
13335;SDS011;6737;51.480;11.962;2023-08-21T00:57:58;6.95;;;5.35;;
13335;SDS011;6737;51.480;11.962;2023-08-21T01:00:25;8.85;;;5.53;;
13335;SDS011;6737;51.480;11.962;2023-08-21T01:02:52;7.32;;;5.40;;
13335;SDS011;6737;51.480;11.962;2023-08-21T01:05:18;7.18;;;5.18;;
13335;SDS011;6737;51.480;11.962;2023-08-21T01:07:52;8.52;;;5.25;;
13335;SDS011;6737;51.480;11.962;2023-08-21T01:10:26;6.20;;;5.55;;
13335;SDS011;6737;51.480;11.962;2023-08-21T01:13:27;6.88;;;5.50;;
13335;SDS011;6737;51.480;11.962;2023-08-21T01:15:56;6.22;;;5.55;;
13335;SDS011;6737;51.480;11.962;2023-08-21T01:18:22;6.00;;;5.40;;
13335;SDS011;6737;51.480;11.962;2023-08-21T01:20:49;6.00;;;5.20;;
13335;SDS011;6737;51.480;11.962;2023-08-21T01:23:35;6.70;;;5.47;;
13335;SDS011;6737;51.480;11.962;2023-08-21T01:26:02;6.18;;;5.43;;
13335;SDS011;6737;51.480;11.962;2023-08-21T01:28:29;7.90;;;5.63;;
13335;SDS011;6737;51.480;11.962;2023-08-21T01:31:01;9.18;;;5.57;;
13335;SDS011;6737;51.480;11.962;2023-08-21T01:33:54;7.93;;;5.78;;
13335;SDS011;6737;51.480;11.962;2023-08-21T01:36:25;8.30;;;5.82;;
13335;SDS011;6737;51.480;11.962;2023-08-21T01:38:51;6.70;;;5.13;;
13335;SDS011;6737;51.480;11.962;2023-08-21T01:41:18;8.38;;;5.95;;
13335;SDS011;6737;51.480;11.962;2023-08-21T01:43:44;8.00;;;5.40;;
13335;SDS011;6737;51.480;11.962;2023-08-21T01:46:09;9.45;;;5.60;;
13335;SDS011;6737;51.480;11.962;2023-08-21T01:48:36;6.68;;;5.70;;
13335;SDS011;6737;51.480;11.962;2023-08-21T01:51:01;8.50;;;5.43;;
13335;SDS011;6737;51.480;11.962;2023-08-21T01:53:27;7.28;;;5.70;;
13335;SDS011;6737;51.480;11.962;2023-08-21T01:55:53;6.75;;;5.80;;
13335;SDS011;6737;51.480;11.962;2023-08-21T01:58:19;5.75;;;5.15;;
13335;SDS011;6737;51.480;11.962;2023-08-21T02:00:46;6.82;;;5.40;;
13335;SDS011;6737;51.480;11.962;2023-08-21T02:03:12;7.28;;;5.15;;
13335;SDS011;6737;51.480;11.962;2023-08-21T02:05:38;5.88;;;4.97;;
13335;SDS011;6737;51.480;11.962;2023-08-21T02:08:05;7.18;;;5.40;;
13335;SDS011;6737;51.480;11.962;2023-08-21T02:10:32;15.07;;;5.55;;
13335;SDS011;6737;51.480;11.962;2023-08-21T02:12:58;7.57;;;5.22;;
13335;SDS011;6737;51.480;11.962;2023-08-21T02:15:24;7.25;;;4.93;;
13335;SDS011;6737;51.480;11.962;2023-08-21T02:17:49;8.38;;;5.47;;
13335;SDS011;6737;51.480;11.962;2023-08-21T02:20:15;6.85;;;5.32;;
13335;SDS011;6737;51.480;11.962;2023-08-21T02:22:41;8.70;;;5.40;;
13335;SDS011;6737;51.480;11.962;2023-08-21T02:25:07;8.85;;;5.50;;
13335;SDS011;6737;51.480;11.962;2023-08-21T02:27:33;9.18;;;5.70;;
13335;SDS011;6737;51.480;11.962;2023-08-21T02:29:58;6.75;;;4.82;;
13335;SDS011;6737;51.480;11.962;2023-08-21T02:32:24;6.82;;;5.47;;
13335;SDS011;6737;51.480;11.962;2023-08-21T02:34:50;7.63;;;5.47;;
13335;SDS011;6737;51.480;11.962;2023-08-21T02:37:16;8.63;;;5.47;;
13335;SDS011;6737;51.480;11.962;2023-08-21T02:39:41;7.28;;;5.68;;
13335;SDS011;6737;51.480;11.962;2023-08-21T02:42:07;7.65;;;5.40;;
13335;SDS011;6737;51.480;11.962;2023-08-21T02:44:33;9.40;;;5.47;;
13335;SDS011;6737;51.480;11.962;2023-08-21T02:46:59;8.98;;;5.63;;
13335;SDS011;6737;51.480;11.962;2023-08-21T02:49:25;7.60;;;6.10;;
13335;SDS011;6737;51.480;11.962;2023-08-21T02:51:51;7.68;;;5.50;;
13335;SDS011;6737;51.480;11.962;2023-08-21T02:54:17;7.75;;;6.00;;
13335;SDS011;6737;51.480;11.962;2023-08-21T02:56:42;11.57;;;5.72;;
13335;SDS011;6737;51.480;11.962;2023-08-21T02:59:08;7.07;;;5.65;;
13335;SDS011;6737;51.480;11.962;2023-08-21T03:01:34;8.02;;;6.00;;
13335;SDS011;6737;51.480;11.962;2023-08-21T03:04:00;9.70;;;5.75;;
13335;SDS011;6737;51.480;11.962;2023-08-21T03:06:27;11.77;;;6.00;;
13335;SDS011;6737;51.480;11.962;2023-08-21T03:08:52;13.45;;;6.43;;
13335;SDS011;6737;51.480;11.962;2023-08-21T03:11:18;6.97;;;5.75;;
13335;SDS011;6737;51.480;11.962;2023-08-21T03:13:44;9.23;;;5.63;;
13335;SDS011;6737;51.480;11.962;2023-08-21T03:16:10;10.43;;;5.60;;
13335;SDS011;6737;51.480;11.962;2023-08-21T03:21:21;8.55;;;6.40;;
13335;SDS011;6737;51.480;11.962;2023-08-21T03:23:49;10.75;;;6.25;;
13335;SDS011;6737;51.480;11.962;2023-08-21T03:26:16;8.43;;;5.78;;
13335;SDS011;6737;51.480;11.962;2023-08-21T03:28:42;9.70;;;5.68;;
13335;SDS011;6737;51.480;11.962;2023-08-21T03:31:07;8.93;;;6.30;;
13335;SDS011;6737;51.480;11.962;2023-08-21T03:33:33;10.75;;;6.43;;
13335;SDS011;6737;51.480;11.962;2023-08-21T03:35:59;10.93;;;6.03;;
13335;SDS011;6737;51.480;11.962;2023-08-21T03:38:25;9.27;;;6.00;;
13335;SDS011;6737;51.480;11.962;2023-08-21T03:40:50;10.63;;;6.20;;
13335;SDS011;6737;51.480;11.962;2023-08-21T03:43:16;11.02;;;6.07;;
13335;SDS011;6737;51.480;11.962;2023-08-21T03:45:42;10.38;;;6.10;;
13335;SDS011;6737;51.480;11.962;2023-08-21T03:48:08;9.70;;;5.93;;
13335;SDS011;6737;51.480;11.962;2023-08-21T03:50:33;8.75;;;6.30;;
13335;SDS011;6737;51.480;11.962;2023-08-21T03:52:59;9.25;;;6.10;;
13335;SDS011;6737;51.480;11.962;2023-08-21T03:55:25;10.70;;;6.32;;
13335;SDS011;6737;51.480;11.962;2023-08-21T03:57:50;8.20;;;6.35;;
13335;SDS011;6737;51.480;11.962;2023-08-21T04:00:16;9.90;;;6.70;;
13335;SDS011;6737;51.480;11.962;2023-08-21T04:02:42;7.78;;;6.28;;
13335;SDS011;6737;51.480;11.962;2023-08-21T04:05:08;9.27;;;6.32;;
13335;SDS011;6737;51.480;11.962;2023-08-21T04:07:35;10.90;;;6.10;;
13335;SDS011;6737;51.480;11.962;2023-08-21T04:10:02;8.05;;;6.68;;
13335;SDS011;6737;51.480;11.962;2023-08-21T04:12:28;11.27;;;6.20;;
13335;SDS011;6737;51.480;11.962;2023-08-21T04:14:54;7.82;;;6.38;;
13335;SDS011;6737;51.480;11.962;2023-08-21T04:17:23;14.38;;;6.68;;
13335;SDS011;6737;51.480;11.962;2023-08-21T04:19:49;8.30;;;6.55;;
13335;SDS011;6737;51.480;11.962;2023-08-21T04:22:16;13.27;;;6.45;;
13335;SDS011;6737;51.480;11.962;2023-08-21T04:24:42;8.30;;;6.78;;
13335;SDS011;6737;51.480;11.962;2023-08-21T04:27:07;10.32;;;6.53;;
13335;SDS011;6737;51.480;11.962;2023-08-21T04:29:35;7.07;;;6.22;;
13335;SDS011;6737;51.480;11.962;2023-08-21T04:32:01;9.82;;;6.70;;
13335;SDS011;6737;51.480;11.962;2023-08-21T04:34:27;9.77;;;6.70;;
13335;SDS011;6737;51.480;11.962;2023-08-21T04:36:52;10.07;;;6.40;;
13335;SDS011;6737;51.480;11.962;2023-08-21T04:39:18;9.05;;;6.32;;
13335;SDS011;6737;51.480;11.962;2023-08-21T04:41:44;8.88;;;6.35;;
13335;SDS011;6737;51.480;11.962;2023-08-21T04:44:10;9.40;;;6.53;;
13335;SDS011;6737;51.480;11.962;2023-08-21T04:46:36;9.75;;;6.53;;
13335;SDS011;6737;51.480;11.962;2023-08-21T04:49:02;8.88;;;6.95;;
13335;SDS011;6737;51.480;11.962;2023-08-21T04:51:27;8.85;;;6.63;;
13335;SDS011;6737;51.480;11.962;2023-08-21T04:53:53;7.95;;;6.15;;
13335;SDS011;6737;51.480;11.962;2023-08-21T04:56:19;8.90;;;6.00;;
13335;SDS011;6737;51.480;11.962;2023-08-21T04:58:45;8.68;;;6.22;;
13335;SDS011;6737;51.480;11.962;2023-08-21T05:01:10;8.00;;;6.50;;
13335;SDS011;6737;51.480;11.962;2023-08-21T05:03:37;9.07;;;6.20;;
13335;SDS011;6737;51.480;11.962;2023-08-21T05:06:03;8.48;;;6.50;;
13335;SDS011;6737;51.480;11.962;2023-08-21T05:08:28;7.07;;;6.00;;
13335;SDS011;6737;51.480;11.962;2023-08-21T05:10:57;8.00;;;6.25;;
13335;SDS011;6737;51.480;11.962;2023-08-21T05:13:24;9.63;;;6.15;;
13335;SDS011;6737;51.480;11.962;2023-08-21T05:15:54;9.40;;;6.20;;
13335;SDS011;6737;51.480;11.962;2023-08-21T05:18:22;7.82;;;6.38;;
13335;SDS011;6737;51.480;11.962;2023-08-21T05:20:48;11.77;;;6.20;;
13335;SDS011;6737;51.480;11.962;2023-08-21T05:23:15;8.48;;;6.15;;
13335;SDS011;6737;51.480;11.962;2023-08-21T05:25:42;9.60;;;6.32;;
13335;SDS011;6737;51.480;11.962;2023-08-21T05:28:09;9.30;;;6.35;;
13335;SDS011;6737;51.480;11.962;2023-08-21T05:30:35;10.10;;;6.03;;
13335;SDS011;6737;51.480;11.962;2023-08-21T05:33:02;9.43;;;6.20;;
13335;SDS011;6737;51.480;11.962;2023-08-21T05:35:28;9.00;;;5.88;;
13335;SDS011;6737;51.480;11.962;2023-08-21T05:37:58;6.57;;;5.60;;
13335;SDS011;6737;51.480;11.962;2023-08-21T05:40:23;9.20;;;6.13;;
13335;SDS011;6737;51.480;11.962;2023-08-21T05:42:49;8.20;;;5.80;;
13335;SDS011;6737;51.480;11.962;2023-08-21T05:45:15;8.95;;;6.32;;
13335;SDS011;6737;51.480;11.962;2023-08-21T05:47:41;11.82;;;5.90;;
13335;SDS011;6737;51.480;11.962;2023-08-21T05:50:06;8.82;;;5.30;;
13335;SDS011;6737;51.480;11.962;2023-08-21T05:52:32;8.18;;;5.40;;
13335;SDS011;6737;51.480;11.962;2023-08-21T05:54:58;8.43;;;5.25;;
13335;SDS011;6737;51.480;11.962;2023-08-21T05:57:24;7.78;;;5.18;;
13335;SDS011;6737;51.480;11.962;2023-08-21T05:59:49;10.35;;;5.40;;
13335;SDS011;6737;51.480;11.962;2023-08-21T06:02:16;8.40;;;5.25;;
13335;SDS011;6737;51.480;11.962;2023-08-21T06:04:42;11.85;;;5.90;;
13335;SDS011;6737;51.480;11.962;2023-08-21T06:07:08;6.38;;;5.25;;
13335;SDS011;6737;51.480;11.962;2023-08-21T06:09:35;5.55;;;4.97;;
13335;SDS011;6737;51.480;11.962;2023-08-21T06:12:02;8.05;;;5.25;;
13335;SDS011;6737;51.480;11.962;2023-08-21T06:14:28;9.32;;;5.50;;
13335;SDS011;6737;51.480;11.962;2023-08-21T06:16:58;8.70;;;5.22;;
13335;SDS011;6737;51.480;11.962;2023-08-21T06:19:25;6.40;;;5.32;;
13335;SDS011;6737;51.480;11.962;2023-08-21T06:21:51;6.75;;;5.10;;
13335;SDS011;6737;51.480;11.962;2023-08-21T06:24:17;7.40;;;5.03;;
13335;SDS011;6737;51.480;11.962;2023-08-21T06:26:42;8.52;;;5.50;;
13335;SDS011;6737;51.480;11.962;2023-08-21T06:29:08;10.18;;;5.13;;
13335;SDS011;6737;51.480;11.962;2023-08-21T06:31:34;8.82;;;5.32;;
13335;SDS011;6737;51.480;11.962;2023-08-21T06:33:59;10.90;;;5.20;;
13335;SDS011;6737;51.480;11.962;2023-08-21T06:36:25;9.55;;;5.30;;
13335;SDS011;6737;51.480;11.962;2023-08-21T06:38:51;6.90;;;4.75;;
13335;SDS011;6737;51.480;11.962;2023-08-21T06:41:17;9.68;;;5.43;;
13335;SDS011;6737;51.480;11.962;2023-08-21T06:43:43;8.63;;;5.53;;
13335;SDS011;6737;51.480;11.962;2023-08-21T06:46:09;11.52;;;5.93;;
13335;SDS011;6737;51.480;11.962;2023-08-21T06:48:37;28.05;;;8.43;;
13335;SDS011;6737;51.480;11.962;2023-08-21T06:51:04;19.15;;;8.93;;
13335;SDS011;6737;51.480;11.962;2023-08-21T06:53:30;15.35;;;7.65;;
13335;SDS011;6737;51.480;11.962;2023-08-21T06:55:56;12.95;;;7.95;;
13335;SDS011;6737;51.480;11.962;2023-08-21T06:58:22;19.00;;;8.20;;
13335;SDS011;6737;51.480;11.962;2023-08-21T07:00:48;13.65;;;8.88;;
13335;SDS011;6737;51.480;11.962;2023-08-21T07:03:14;15.60;;;9.65;;
13335;SDS011;6737;51.480;11.962;2023-08-21T07:05:40;18.33;;;9.43;;
13335;SDS011;6737;51.480;11.962;2023-08-21T07:08:05;16.48;;;9.65;;
13335;SDS011;6737;51.480;11.962;2023-08-21T07:10:37;16.45;;;10.13;;
13335;SDS011;6737;51.480;11.962;2023-08-21T07:13:03;16.83;;;10.30;;
13335;SDS011;6737;51.480;11.962;2023-08-21T07:15:29;14.50;;;10.27;;
13335;SDS011;6737;51.480;11.962;2023-08-21T07:17:55;13.93;;;10.70;;
13335;SDS011;6737;51.480;11.962;2023-08-21T07:20:21;14.45;;;10.77;;
13335;SDS011;6737;51.480;11.962;2023-08-21T07:22:47;14.30;;;10.07;;
13335;SDS011;6737;51.480;11.962;2023-08-21T07:25:13;16.60;;;9.90;;
13335;SDS011;6737;51.480;11.962;2023-08-21T07:27:38;15.02;;;10.27;;
13335;SDS011;6737;51.480;11.962;2023-08-21T07:30:05;17.30;;;11.15;;
13335;SDS011;6737;51.480;11.962;2023-08-21T07:32:32;16.10;;;10.77;;
13335;SDS011;6737;51.480;11.962;2023-08-21T07:34:57;17.08;;;10.02;;
13335;SDS011;6737;51.480;11.962;2023-08-21T07:37:23;14.95;;;10.27;;
13335;SDS011;6737;51.480;11.962;2023-08-21T07:39:49;13.60;;;10.57;;
13335;SDS011;6737;51.480;11.962;2023-08-21T07:42:15;14.20;;;11.48;;
13335;SDS011;6737;51.480;11.962;2023-08-21T07:44:41;13.77;;;10.85;;
13335;SDS011;6737;51.480;11.962;2023-08-21T07:47:07;19.23;;;11.07;;
13335;SDS011;6737;51.480;11.962;2023-08-21T07:49:33;13.13;;;11.18;;
13335;SDS011;6737;51.480;11.962;2023-08-21T07:51:58;14.63;;;11.80;;
13335;SDS011;6737;51.480;11.962;2023-08-21T07:54:24;17.00;;;12.07;;
13335;SDS011;6737;51.480;11.962;2023-08-21T07:56:50;17.70;;;13.15;;
13335;SDS011;6737;51.480;11.962;2023-08-21T07:59:16;15.85;;;12.10;;
13335;SDS011;6737;51.480;11.962;2023-08-21T08:01:42;14.68;;;11.80;;
13335;SDS011;6737;51.480;11.962;2023-08-21T08:04:08;16.00;;;12.68;;
13335;SDS011;6737;51.480;11.962;2023-08-21T08:06:36;13.07;;;11.13;;
13335;SDS011;6737;51.480;11.962;2023-08-21T08:09:02;15.52;;;11.50;;
13335;SDS011;6737;51.480;11.962;2023-08-21T08:11:29;16.55;;;12.27;;
13335;SDS011;6737;51.480;11.962;2023-08-21T08:13:55;14.15;;;12.25;;
13335;SDS011;6737;51.480;11.962;2023-08-21T08:16:21;17.85;;;11.88;;
13335;SDS011;6737;51.480;11.962;2023-08-21T08:18:47;16.70;;;12.07;;
13335;SDS011;6737;51.480;11.962;2023-08-21T08:21:13;16.30;;;11.35;;
13335;SDS011;6737;51.480;11.962;2023-08-21T08:23:39;15.05;;;11.63;;
13335;SDS011;6737;51.480;11.962;2023-08-21T08:26:05;15.90;;;9.80;;
13335;SDS011;6737;51.480;11.962;2023-08-21T08:28:31;10.80;;;9.68;;
13335;SDS011;6737;51.480;11.962;2023-08-21T08:30:57;14.82;;;9.80;;
13335;SDS011;6737;51.480;11.962;2023-08-21T08:33:23;12.20;;;9.35;;
13335;SDS011;6737;51.480;11.962;2023-08-21T08:35:49;10.80;;;9.02;;
13335;SDS011;6737;51.480;11.962;2023-08-21T08:38:15;12.82;;;8.50;;
13335;SDS011;6737;51.480;11.962;2023-08-21T08:40:45;10.35;;;7.57;;
13335;SDS011;6737;51.480;11.962;2023-08-21T08:43:12;9.40;;;7.88;;
13335;SDS011;6737;51.480;11.962;2023-08-21T08:45:39;8.00;;;6.95;;
13335;SDS011;6737;51.480;11.962;2023-08-21T08:48:06;9.68;;;6.70;;
13335;SDS011;6737;51.480;11.962;2023-08-21T08:50:33;11.02;;;8.60;;
13335;SDS011;6737;51.480;11.962;2023-08-21T08:53:00;11.90;;;6.80;;
13335;SDS011;6737;51.480;11.962;2023-08-21T08:55:26;12.10;;;7.10;;
13335;SDS011;6737;51.480;11.962;2023-08-21T08:57:52;11.73;;;6.47;;
13335;SDS011;6737;51.480;11.962;2023-08-21T09:00:19;8.25;;;6.40;;
13335;SDS011;6737;51.480;11.962;2023-08-21T09:02:47;9.32;;;6.70;;
13335;SDS011;6737;51.480;11.962;2023-08-21T09:05:13;8.90;;;6.18;;
13335;SDS011;6737;51.480;11.962;2023-08-21T09:07:39;9.70;;;6.13;;
13335;SDS011;6737;51.480;11.962;2023-08-21T09:10:12;7.78;;;5.50;;
13335;SDS011;6737;51.480;11.962;2023-08-21T09:12:40;8.23;;;5.63;;
13335;SDS011;6737;51.480;11.962;2023-08-21T09:15:10;8.75;;;4.40;;
13335;SDS011;6737;51.480;11.962;2023-08-21T09:17:36;6.90;;;4.25;;
13335;SDS011;6737;51.480;11.962;2023-08-21T09:20:05;4.70;;;3.60;;
13335;SDS011;6737;51.480;11.962;2023-08-21T09:22:33;6.68;;;3.20;;
13335;SDS011;6737;51.480;11.962;2023-08-21T09:25:08;5.70;;;3.80;;
13335;SDS011;6737;51.480;11.962;2023-08-21T09:27:38;5.38;;;3.20;;
13335;SDS011;6737;51.480;11.962;2023-08-21T09:30:06;6.68;;;3.75;;
13335;SDS011;6737;51.480;11.962;2023-08-21T09:35:25;5.13;;;3.20;;
13335;SDS011;6737;51.480;11.962;2023-08-21T09:37:52;5.38;;;2.80;;
13335;SDS011;6737;51.480;11.962;2023-08-21T09:40:18;3.92;;;2.47;;
13335;SDS011;6737;51.480;11.962;2023-08-21T09:42:45;4.57;;;3.10;;
13335;SDS011;6737;51.480;11.962;2023-08-21T09:45:19;3.42;;;2.53;;
13335;SDS011;6737;51.480;11.962;2023-08-21T09:47:49;4.93;;;2.58;;
13335;SDS011;6737;51.480;11.962;2023-08-21T09:50:18;4.88;;;2.40;;
13335;SDS011;6737;51.480;11.962;2023-08-21T09:52:45;4.13;;;2.58;;
13335;SDS011;6737;51.480;11.962;2023-08-21T09:55:12;2.22;;;2.03;;
13335;SDS011;6737;51.480;11.962;2023-08-21T09:57:39;5.43;;;2.45;;
13335;SDS011;6737;51.480;11.962;2023-08-21T10:00:09;4.35;;;2.10;;
13335;SDS011;6737;51.480;11.962;2023-08-21T10:02:43;4.00;;;2.53;;
13335;SDS011;6737;51.480;11.962;2023-08-21T10:05:16;4.18;;;2.28;;
13335;SDS011;6737;51.480;11.962;2023-08-21T10:07:49;4.10;;;2.05;;
13335;SDS011;6737;51.480;11.962;2023-08-21T10:10:16;2.63;;;1.85;;
13335;SDS011;6737;51.480;11.962;2023-08-21T10:12:42;3.60;;;2.00;;
13335;SDS011;6737;51.480;11.962;2023-08-21T10:15:08;3.67;;;1.75;;
13335;SDS011;6737;51.480;11.962;2023-08-21T10:17:35;2.80;;;1.83;;
13335;SDS011;6737;51.480;11.962;2023-08-21T10:20:05;3.00;;;1.85;;
13335;SDS011;6737;51.480;11.962;2023-08-21T10:22:39;2.55;;;1.70;;
13335;SDS011;6737;51.480;11.962;2023-08-21T10:25:13;2.65;;;1.80;;
13335;SDS011;6737;51.480;11.962;2023-08-21T10:27:42;5.40;;;2.20;;
13335;SDS011;6737;51.480;11.962;2023-08-21T10:30:14;3.08;;;1.83;;
13335;SDS011;6737;51.480;11.962;2023-08-21T10:32:45;3.92;;;2.25;;
13335;SDS011;6737;51.480;11.962;2023-08-21T10:35:19;5.80;;;1.90;;
13335;SDS011;6737;51.480;11.962;2023-08-21T10:40:32;3.85;;;2.30;;
13335;SDS011;6737;51.480;11.962;2023-08-21T10:42:59;3.05;;;2.10;;
13335;SDS011;6737;51.480;11.962;2023-08-21T10:45:25;4.35;;;2.28;;
13335;SDS011;6737;51.480;11.962;2023-08-21T10:47:51;3.58;;;2.10;;
13335;SDS011;6737;51.480;11.962;2023-08-21T10:50:16;3.83;;;2.58;;
13335;SDS011;6737;51.480;11.962;2023-08-21T10:52:43;4.70;;;2.30;;
13335;SDS011;6737;51.480;11.962;2023-08-21T10:55:13;4.88;;;2.30;;
13335;SDS011;6737;51.480;11.962;2023-08-21T10:57:40;5.30;;;2.67;;
13335;SDS011;6737;51.480;11.962;2023-08-21T11:00:07;3.60;;;2.33;;
13335;SDS011;6737;51.480;11.962;2023-08-21T11:02:37;3.78;;;2.40;;
13335;SDS011;6737;51.480;11.962;2023-08-21T11:05:04;3.78;;;2.35;;
13335;SDS011;6737;51.480;11.962;2023-08-21T11:07:41;4.25;;;2.28;;
13335;SDS011;6737;51.480;11.962;2023-08-21T11:10:13;3.38;;;2.50;;
13335;SDS011;6737;51.480;11.962;2023-08-21T11:12:51;3.75;;;2.40;;
13335;SDS011;6737;51.480;11.962;2023-08-21T11:15:20;6.20;;;2.45;;
13335;SDS011;6737;51.480;11.962;2023-08-21T11:17:50;6.25;;;3.22;;
13335;SDS011;6737;51.480;11.962;2023-08-21T11:20:21;3.72;;;2.53;;
13335;SDS011;6737;51.480;11.962;2023-08-21T11:22:47;5.97;;;2.50;;
13335;SDS011;6737;51.480;11.962;2023-08-21T11:25:15;4.97;;;2.55;;
13335;SDS011;6737;51.480;11.962;2023-08-21T11:27:43;4.15;;;2.50;;
13335;SDS011;6737;51.480;11.962;2023-08-21T11:30:10;4.55;;;2.67;;
13335;SDS011;6737;51.480;11.962;2023-08-21T11:32:37;5.70;;;2.92;;
13335;SDS011;6737;51.480;11.962;2023-08-21T11:35:02;5.00;;;2.97;;
13335;SDS011;6737;51.480;11.962;2023-08-21T11:37:28;4.88;;;2.67;;
13335;SDS011;6737;51.480;11.962;2023-08-21T11:39:55;5.70;;;3.05;;
13335;SDS011;6737;51.480;11.962;2023-08-21T11:42:32;5.85;;;3.03;;
13335;SDS011;6737;51.480;11.962;2023-08-21T11:44:59;4.60;;;3.00;;
13335;SDS011;6737;51.480;11.962;2023-08-21T11:47:32;7.18;;;3.53;;
13335;SDS011;6737;51.480;11.962;2023-08-21T11:50:03;4.15;;;3.00;;
13335;SDS011;6737;51.480;11.962;2023-08-21T11:52:30;5.00;;;3.20;;
13335;SDS011;6737;51.480;11.962;2023-08-21T11:55:06;5.63;;;3.42;;
13335;SDS011;6737;51.480;11.962;2023-08-21T11:57:34;4.20;;;3.10;;
13335;SDS011;6737;51.480;11.962;2023-08-21T12:00:00;5.90;;;2.80;;
13335;SDS011;6737;51.480;11.962;2023-08-21T12:02:26;5.10;;;3.08;;
13335;SDS011;6737;51.480;11.962;2023-08-21T12:04:54;4.53;;;3.22;;
13335;SDS011;6737;51.480;11.962;2023-08-21T12:07:27;5.47;;;3.28;;
13335;SDS011;6737;51.480;11.962;2023-08-21T12:09:53;4.93;;;2.85;;
13335;SDS011;6737;51.480;11.962;2023-08-21T12:12:18;6.47;;;3.63;;
13335;SDS011;6737;51.480;11.962;2023-08-21T12:14:46;5.97;;;3.10;;
13335;SDS011;6737;51.480;11.962;2023-08-21T12:17:12;7.05;;;3.42;;
13335;SDS011;6737;51.480;11.962;2023-08-21T12:19:38;4.20;;;3.33;;
13335;SDS011;6737;51.480;11.962;2023-08-21T12:22:04;6.32;;;3.75;;
13335;SDS011;6737;51.480;11.962;2023-08-21T12:24:30;6.78;;;3.70;;
13335;SDS011;6737;51.480;11.962;2023-08-21T12:26:56;5.63;;;3.40;;
13335;SDS011;6737;51.480;11.962;2023-08-21T12:29:22;6.60;;;3.22;;
13335;SDS011;6737;51.480;11.962;2023-08-21T12:31:47;6.03;;;2.92;;
13335;SDS011;6737;51.480;11.962;2023-08-21T12:34:13;4.72;;;2.97;;
13335;SDS011;6737;51.480;11.962;2023-08-21T12:36:39;5.90;;;2.85;;
13335;SDS011;6737;51.480;11.962;2023-08-21T12:39:05;5.07;;;2.95;;
13335;SDS011;6737;51.480;11.962;2023-08-21T12:41:32;6.85;;;3.05;;
13335;SDS011;6737;51.480;11.962;2023-08-21T12:44:01;9.48;;;3.50;;
13335;SDS011;6737;51.480;11.962;2023-08-21T12:46:29;4.07;;;3.17;;
13335;SDS011;6737;51.480;11.962;2023-08-21T12:48:56;4.53;;;3.40;;
13335;SDS011;6737;51.480;11.962;2023-08-21T12:51:22;6.15;;;3.10;;
13335;SDS011;6737;51.480;11.962;2023-08-21T12:53:48;6.57;;;3.25;;
13335;SDS011;6737;51.480;11.962;2023-08-21T12:56:14;6.45;;;3.20;;
13335;SDS011;6737;51.480;11.962;2023-08-21T12:58:40;4.70;;;3.33;;
13335;SDS011;6737;51.480;11.962;2023-08-21T13:01:05;3.33;;;2.92;;
13335;SDS011;6737;51.480;11.962;2023-08-21T13:03:33;4.75;;;3.13;;
13335;SDS011;6737;51.480;11.962;2023-08-21T13:05:59;4.07;;;2.90;;
13335;SDS011;6737;51.480;11.962;2023-08-21T13:08:25;5.93;;;3.00;;
13335;SDS011;6737;51.480;11.962;2023-08-21T13:10:52;5.45;;;3.53;;
13335;SDS011;6737;51.480;11.962;2023-08-21T13:13:18;5.90;;;3.10;;
13335;SDS011;6737;51.480;11.962;2023-08-21T13:15:43;4.55;;;3.08;;
13335;SDS011;6737;51.480;11.962;2023-08-21T13:18:10;4.68;;;3.13;;
13335;SDS011;6737;51.480;11.962;2023-08-21T13:20:37;7.05;;;3.25;;
13335;SDS011;6737;51.480;11.962;2023-08-21T13:23:02;5.18;;;3.30;;
13335;SDS011;6737;51.480;11.962;2023-08-21T13:25:28;5.85;;;3.22;;
13335;SDS011;6737;51.480;11.962;2023-08-21T13:27:55;5.28;;;3.30;;
13335;SDS011;6737;51.480;11.962;2023-08-21T13:30:21;3.50;;;2.85;;
13335;SDS011;6737;51.480;11.962;2023-08-21T13:32:47;5.00;;;3.08;;
13335;SDS011;6737;51.480;11.962;2023-08-21T13:35:13;7.05;;;3.58;;
13335;SDS011;6737;51.480;11.962;2023-08-21T13:37:39;4.85;;;3.05;;
13335;SDS011;6737;51.480;11.962;2023-08-21T13:40:05;6.03;;;3.25;;
13335;SDS011;6737;51.480;11.962;2023-08-21T13:42:44;3.78;;;3.08;;
13335;SDS011;6737;51.480;11.962;2023-08-21T13:45:14;6.68;;;3.60;;
13335;SDS011;6737;51.480;11.962;2023-08-21T13:47:43;5.00;;;3.22;;
13335;SDS011;6737;51.480;11.962;2023-08-21T13:50:14;5.65;;;3.20;;
13335;SDS011;6737;51.480;11.962;2023-08-21T13:52:41;6.78;;;3.15;;
13335;SDS011;6737;51.480;11.962;2023-08-21T13:55:09;6.20;;;3.10;;
13335;SDS011;6737;51.480;11.962;2023-08-21T13:57:36;7.15;;;3.20;;
13335;SDS011;6737;51.480;11.962;2023-08-21T14:00:03;7.05;;;3.45;;
13335;SDS011;6737;51.480;11.962;2023-08-21T14:02:36;6.45;;;3.35;;
13335;SDS011;6737;51.480;11.962;2023-08-21T14:05:03;5.22;;;3.20;;
13335;SDS011;6737;51.480;11.962;2023-08-21T14:07:30;3.75;;;3.08;;
13335;SDS011;6737;51.480;11.962;2023-08-21T14:09:56;5.28;;;3.35;;
13335;SDS011;6737;51.480;11.962;2023-08-21T14:12:22;6.28;;;3.47;;
13335;SDS011;6737;51.480;11.962;2023-08-21T14:14:48;6.35;;;3.10;;
13335;SDS011;6737;51.480;11.962;2023-08-21T14:17:14;7.43;;;3.20;;
13335;SDS011;6737;51.480;11.962;2023-08-21T14:19:40;3.70;;;2.92;;
13335;SDS011;6737;51.480;11.962;2023-08-21T14:22:06;4.22;;;2.88;;
13335;SDS011;6737;51.480;11.962;2023-08-21T14:24:32;5.40;;;3.20;;
13335;SDS011;6737;51.480;11.962;2023-08-21T14:26:58;4.40;;;3.10;;
13335;SDS011;6737;51.480;11.962;2023-08-21T14:29:25;4.47;;;3.40;;
13335;SDS011;6737;51.480;11.962;2023-08-21T14:31:51;4.60;;;3.30;;
13335;SDS011;6737;51.480;11.962;2023-08-21T14:34:18;6.03;;;3.40;;
13335;SDS011;6737;51.480;11.962;2023-08-21T14:36:45;3.67;;;3.30;;
13335;SDS011;6737;51.480;11.962;2023-08-21T14:39:13;4.15;;;3.03;;
13335;SDS011;6737;51.480;11.962;2023-08-21T14:41:40;4.35;;;3.50;;
13335;SDS011;6737;51.480;11.962;2023-08-21T14:44:07;4.57;;;3.28;;
13335;SDS011;6737;51.480;11.962;2023-08-21T14:46:34;5.55;;;3.38;;
13335;SDS011;6737;51.480;11.962;2023-08-21T14:48:59;5.38;;;3.20;;
13335;SDS011;6737;51.480;11.962;2023-08-21T14:51:25;5.45;;;3.03;;